Time;durP1;ratioP1;P1;durP2;ratioP2;P2;SDS_P1;SDS_P2;PMS_P1;PMS_P2;Temp;Humidity;BMP_temperature;BMP_pressure;BME280_temperature;BME280_humidity;BME280_pressure;Samples;Min_cycle;Max_cycle;Signal;HPM_P1;HPM_P2
2023/01/23 00:02:18;;;;;;;1.93;1.83;;;;;-0.30;96956.00;;;;5034169;28;20239;-67
2023/01/23 00:04:46;;;;;;;0.80;0.80;;;;;-0.30;96965.00;;;;5034635;28;20239;-67
2023/01/23 00:07:13;;;;;;;1.20;1.20;;;;;-0.30;96953.00;;;;5033123;28;20230;-68
2023/01/23 00:09:41;;;;;;;1.70;1.60;;;;;-0.30;96948.00;;;;5016007;28;20648;-67
2023/01/23 00:12:08;;;;;;;1.03;1.03;;;;;-0.20;96953.00;;;;5033744;28;20252;-67
2023/01/23 00:14:36;;;;;;;2.10;2.00;;;;;-0.20;96944.00;;;;5033698;28;20652;-67
2023/01/23 00:17:04;;;;;;;1.07;1.07;;;;;-0.20;96951.00;;;;5033898;28;20275;-68
2023/01/23 00:19:32;;;;;;;1.23;1.10;;;;;-0.20;96948.00;;;;5033362;28;20228;-68
2023/01/23 00:22:00;;;;;;;1.33;1.33;;;;;-0.20;96954.00;;;;5033646;28;20209;-67
2023/01/23 00:24:28;;;;;;;1.43;1.40;;;;;-0.30;96949.00;;;;5033806;28;20199;-67
2023/01/23 00:26:56;;;;;;;3.70;2.13;;;;;-0.20;96955.00;;;;5015767;28;20303;-67
2023/01/23 00:29:24;;;;;;;1.23;1.23;;;;;-0.30;96956.00;;;;5033396;28;20217;-68
2023/01/23 00:31:51;;;;;;;2.60;1.93;;;;;-0.30;96950.00;;;;5034609;28;20215;-67
2023/01/23 00:34:20;;;;;;;1.57;1.50;;;;;-0.30;96953.00;;;;5033473;28;20201;-68
2023/01/23 00:36:47;;;;;;;1.00;1.00;;;;;-0.30;96950.00;;;;5033910;28;20197;-67
2023/01/23 00:39:18;;;;;;;1.67;1.60;;;;;-0.30;96945.00;;;;5033461;28;20222;-67
2023/01/23 00:41:46;;;;;;;2.10;1.93;;;;;-0.30;96949.00;;;;5033557;28;20181;-67
2023/01/23 00:44:14;;;;;;;1.27;1.27;;;;;-0.30;96957.00;;;;5033266;28;20190;-65
2023/01/23 00:46:42;;;;;;;1.90;1.63;;;;;-0.40;96953.00;;;;5015518;28;20201;-66
2023/01/23 00:49:10;;;;;;;1.67;1.57;;;;;-0.40;96942.00;;;;5033663;28;20217;-66
2023/01/23 00:51:38;;;;;;;1.00;1.00;;;;;-0.40;96944.00;;;;5033303;28;20190;-67
2023/01/23 00:54:06;;;;;;;1.63;1.53;;;;;-0.40;96951.00;;;;5033085;28;20197;-67
2023/01/23 00:56:34;;;;;;;1.47;1.47;;;;;-0.40;96944.00;;;;5033121;28;20198;-67
2023/01/23 00:59:01;;;;;;;1.57;1.33;;;;;-0.40;96951.00;;;;5032938;28;20227;-66
2023/01/23 01:01:30;;;;;;;1.80;1.70;;;;;-0.40;96953.00;;;;5033154;28;20660;-66
2023/01/23 01:03:57;;;;;;;4.37;2.23;;;;;-0.30;96950.00;;;;5033276;28;20556;-66
2023/01/23 01:06:25;;;;;;;1.73;1.63;;;;;-0.40;96943.00;;;;5033524;28;20203;-66
2023/01/23 01:08:54;;;;;;;2.57;2.37;;;;;-0.40;96955.00;;;;5032887;28;20209;-66
2023/01/23 01:11:21;;;;;;;2.60;2.40;;;;;-0.50;96949.00;;;;5033244;28;20193;-66
2023/01/23 01:13:49;;;;;;;1.83;1.73;;;;;-0.40;96951.00;;;;5033244;28;20564;-67
2023/01/23 01:16:16;;;;;;;2.47;1.87;;;;;-0.40;96948.00;;;;5033410;28;20198;-66
2023/01/23 01:18:44;;;;;;;2.50;2.30;;;;;-0.40;96951.00;;;;5034535;28;20235;-66
2023/01/23 01:21:14;;;;;;;3.87;2.83;;;;;-0.40;96958.00;;;;5037247;28;20655;-66
2023/01/23 01:23:41;;;;;;;1.90;1.80;;;;;-0.30;96963.00;;;;5036831;28;20194;-67
2023/01/23 01:26:10;;;;;;;1.53;1.43;;;;;-0.40;96969.00;;;;5036826;28;20200;-67
2023/01/23 01:28:39;;;;;;;1.93;1.73;;;;;-0.40;96970.00;;;;5036846;28;20692;-66
2023/01/23 01:31:10;;;;;;;3.87;2.07;;;;;-0.40;96971.00;;;;5018961;28;20197;-67
2023/01/23 01:33:39;;;;;;;1.43;1.43;;;;;-0.40;96972.00;;;;5036993;28;20187;-66
2023/01/23 01:36:09;;;;;;;1.83;1.73;;;;;-0.40;96979.00;;;;5037171;28;20201;-67
2023/01/23 01:38:37;;;;;;;2.50;2.40;;;;;-0.40;96970.00;;;;5036789;28;20217;-66
2023/01/23 01:41:05;;;;;;;4.37;2.13;;;;;-0.50;96976.00;;;;5036522;28;20220;-66
2023/01/23 01:43:34;;;;;;;1.70;1.60;;;;;-0.40;96974.00;;;;5036499;28;20193;-67
2023/01/23 01:46:09;;;;;;;1.07;1.07;;;;;-0.50;96972.00;;;;5018687;28;20540;-66
2023/01/23 01:48:42;;;;;;;1.10;1.10;;;;;-0.50;96981.00;;;;5036393;28;20208;-66
2023/01/23 01:51:18;;;;;;;2.27;1.87;;;;;-0.40;96973.00;;;;5036372;28;20177;-66
2023/01/23 01:53:49;;;;;;;2.53;2.07;;;;;-0.40;96988.00;;;;5036349;28;20189;-67
2023/01/23 01:56:17;;;;;;;1.77;1.67;;;;;-0.50;96984.00;;;;5036462;28;20186;-66
2023/01/23 01:58:51;;;;;;;2.40;2.20;;;;;-0.40;96991.00;;;;5036062;28;20328;-66
2023/01/23 02:01:20;;;;;;;1.10;1.10;;;;;-0.40;96983.00;;;;5036714;28;20177;-66
2023/01/23 02:03:48;;;;;;;1.30;1.20;;;;;-0.40;96986.00;;;;5036113;28;20196;-67
2023/01/23 02:06:16;;;;;;;2.30;1.20;;;;;-0.40;96993.00;;;;5036288;28;20200;-67
2023/01/23 02:08:52;;;;;;;1.50;1.50;;;;;-0.50;96999.00;;;;5036474;28;20545;-66
2023/01/23 02:11:19;;;;;;;0.80;0.80;;;;;-0.40;97000.00;;;;5036325;28;20189;-66
2023/01/23 02:13:48;;;;;;;1.13;1.13;;;;;-0.40;96991.00;;;;5036515;28;20193;-66
2023/01/23 02:16:19;;;;;;;2.70;1.20;;;;;-0.40;97003.00;;;;5035950;28;20197;-66
2023/01/23 02:18:48;;;;;;;1.80;1.70;;;;;-0.50;97010.00;;;;5051183;22;20221;-59
2023/01/23 02:21:20;;;;;;;2.33;2.20;;;;;-0.40;97012.00;;;;5055983;28;20208;-58
2023/01/23 02:24:02;;;;;;;1.87;1.70;;;;;-0.40;97009.00;;;;5056264;28;20188;-59
2023/01/23 02:26:35;;;;;;;1.47;1.43;;;;;-0.40;97003.00;;;;5055630;28;20218;-58
2023/01/23 02:29:03;;;;;;;1.23;1.23;;;;;-0.40;97002.00;;;;5055612;28;20209;-58
2023/01/23 02:31:31;;;;;;;1.90;1.80;;;;;-0.40;96996.00;;;;5053546;28;20251;-58
2023/01/23 02:33:59;;;;;;;2.67;1.93;;;;;-0.40;96993.00;;;;5056037;28;20194;-58
2023/01/23 02:36:28;;;;;;;1.47;1.47;;;;;-0.40;96991.00;;;;5055655;28;20209;-59
2023/01/23 02:39:06;;;;;;;2.63;2.43;;;;;-0.20;97004.00;;;;5055475;28;20591;-59
2023/01/23 02:41:37;;;;;;;4.83;2.07;;;;;-0.30;96997.00;;;;5055290;28;20181;-58
2023/01/23 02:44:11;;;;;;;1.70;1.60;;;;;-0.30;96998.00;;;;5055590;28;20184;-59
2023/01/23 02:46:39;;;;;;;1.40;1.40;;;;;-0.30;96988.00;;;;5055466;28;20187;-58
2023/01/23 02:49:06;;;;;;;5.03;2.00;;;;;-0.30;96986.00;;;;5055347;28;20213;-58
2023/01/23 02:51:33;;;;;;;1.23;1.23;;;;;-0.30;96988.00;;;;5055331;28;20201;-58
2023/01/23 02:54:01;;;;;;;1.87;1.73;;;;;-0.20;96983.00;;;;5055336;28;20625;-59
2023/01/23 02:56:29;;;;;;;2.73;2.53;;;;;-0.20;96976.00;;;;5055212;28;20246;-58
2023/01/23 03:01:43;;;;;;;1.77;1.67;;;;;-0.30;96978.00;;;;5037059;28;20184;-59
2023/01/23 03:04:10;;;;;;;1.40;1.40;;;;;-0.30;96993.00;;;;5054903;28;20243;-58
2023/01/23 03:06:38;;;;;;;2.03;1.93;;;;;-0.30;96996.00;;;;5054836;28;20674;-59
2023/01/23 03:09:08;;;;;;;2.07;1.97;;;;;-0.40;97002.00;;;;5054752;28;20219;-59
2023/01/23 03:11:37;;;;;;;1.77;1.67;;;;;-0.30;96999.00;;;;5036918;28;20193;-59
2023/01/23 03:14:08;;;;;;;1.10;1.10;;;;;-0.40;96988.00;;;;5054703;28;20188;-59
2023/01/23 03:16:35;;;;;;;1.63;1.53;;;;;-0.40;96984.00;;;;5055004;28;20589;-58
2023/01/23 03:19:06;;;;;;;2.47;2.27;;;;;-0.40;96989.00;;;;5054414;28;20220;-59
2023/01/23 03:21:35;;;;;;;2.23;2.13;;;;;-0.40;96996.00;;;;5055069;28;20188;-59
2023/01/23 03:24:04;;;;;;;1.83;1.70;;;;;-0.40;97002.00;;;;5054514;28;20189;-58
2023/01/23 03:26:31;;;;;;;1.30;1.20;;;;;-0.40;96990.00;;;;5054461;28;20232;-58
2023/01/23 03:31:45;;;;;;;2.80;2.30;;;;;-0.40;96985.00;;;;5054721;28;20181;-59
2023/01/23 03:34:12;;;;;;;2.43;2.33;;;;;-0.30;96999.00;;;;5054575;28;20197;-58
2023/01/23 03:36:40;;;;;;;3.50;2.67;;;;;-0.40;96992.00;;;;5054815;28;20248;-59
2023/01/23 03:41:54;;;;;;;3.77;3.33;;;;;-0.40;96998.00;;;;5053353;28;20186;-58
2023/01/23 03:44:21;;;;;;;2.77;1.97;;;;;-0.40;96989.00;;;;5054361;28;20216;-59
2023/01/23 03:46:51;;;;;;;3.67;2.60;;;;;-0.50;96986.00;;;;5054335;28;20200;-58
2023/01/23 03:49:20;;;;;;;1.23;1.23;;;;;-0.50;96986.00;;;;5053926;28;20266;-59
2023/01/23 03:51:48;;;;;;;1.80;1.70;;;;;-0.40;96985.00;;;;5054000;28;20193;-58
2023/01/23 03:54:15;;;;;;;4.00;1.83;;;;;-0.40;96977.00;;;;5053978;28;20188;-58
2023/01/23 03:56:42;;;;;;;1.90;1.80;;;;;-0.50;96972.00;;;;5053860;28;20196;-59
2023/01/23 03:59:10;;;;;;;1.97;1.87;;;;;-0.40;96986.00;;;;5053734;28;20216;-58
2023/01/23 04:01:38;;;;;;;4.13;3.27;;;;;-0.30;96985.00;;;;5035959;28;20240;-58
2023/01/23 04:04:07;;;;;;;2.07;1.97;;;;;-0.30;96979.00;;;;5053766;28;20671;-58
2023/01/23 04:06:35;;;;;;;1.53;1.43;;;;;-0.30;96980.00;;;;5054417;28;20204;-59
2023/01/23 04:09:02;;;;;;;1.67;1.57;;;;;-0.40;96999.00;;;;5054386;28;20208;-58
2023/01/23 04:11:30;;;;;;;2.70;2.50;;;;;-0.40;96999.00;;;;5053669;28;20196;-59
2023/01/23 04:13:57;;;;;;;3.70;2.27;;;;;-0.50;97001.00;;;;5054350;28;20196;-58
2023/01/23 04:16:27;;;;;;;3.13;2.83;;;;;-0.40;97000.00;;;;5053979;28;20199;-59
2023/01/23 04:18:55;;;;;;;2.43;2.23;;;;;-0.40;97001.00;;;;5054141;28;20586;-59
2023/01/23 04:21:24;;;;;;;3.17;2.80;;;;;-0.40;96990.00;;;;5053547;28;20635;-59
2023/01/23 04:23:51;;;;;;;2.80;2.27;;;;;-0.40;97000.00;;;;5053414;28;20200;-59
2023/01/23 04:26:19;;;;;;;4.23;2.60;;;;;-0.30;97013.00;;;;5053324;28;20192;-59
2023/01/23 04:28:46;;;;;;;1.73;1.63;;;;;-0.40;97016.00;;;;5053316;28;20197;-59
2023/01/23 04:31:14;;;;;;;3.77;2.60;;;;;-0.40;97012.00;;;;5053508;28;20247;-58
2023/01/23 04:33:41;;;;;;;2.67;2.47;;;;;-0.40;97016.00;;;;5053228;28;20714;-58
2023/01/23 04:36:10;;;;;;;2.53;2.43;;;;;-0.40;97016.00;;;;5053267;28;20237;-59
2023/01/23 04:38:39;;;;;;;2.33;2.13;;;;;-0.40;97021.00;;;;5053375;28;20552;-59
2023/01/23 04:41:07;;;;;;;3.37;3.00;;;;;-0.40;97022.00;;;;5053291;28;20676;-59
2023/01/23 04:43:34;;;;;;;2.17;1.97;;;;;-0.30;97010.00;;;;5053079;28;20729;-58
2023/01/23 04:46:02;;;;;;;1.47;1.40;;;;;-0.30;97022.00;;;;5053017;28;20705;-58
2023/01/23 04:48:29;;;;;;;2.73;2.53;;;;;-0.40;97037.00;;;;5053072;28;20244;-58
2023/01/23 04:50:56;;;;;;;2.10;1.90;;;;;-0.40;97034.00;;;;5053013;28;20242;-59
2023/01/23 04:53:24;;;;;;;2.90;2.70;;;;;-0.30;97028.00;;;;5052781;28;20197;-58
2023/01/23 04:55:53;;;;;;;2.27;2.07;;;;;-0.30;97027.00;;;;5035236;28;20201;-59
2023/01/23 04:58:20;;;;;;;2.47;2.30;;;;;-0.40;97033.00;;;;5053291;28;20196;-57
2023/01/23 05:00:48;;;;;;;2.83;2.63;;;;;-0.30;97030.00;;;;5053089;28;20222;-59
2023/01/23 05:03:16;;;;;;;1.97;1.87;;;;;-0.30;97022.00;;;;5052972;28;20197;-58
2023/01/23 05:05:43;;;;;;;2.53;2.33;;;;;-0.30;97025.00;;;;5053132;28;20350;-59
2023/01/23 05:08:11;;;;;;;3.77;2.60;;;;;-0.30;97028.00;;;;5052905;28;20197;-59
2023/01/23 05:10:39;;;;;;;2.43;2.23;;;;;-0.30;97028.00;;;;5052768;28;20215;-59
2023/01/23 05:13:09;;;;;;;2.07;1.97;;;;;-0.30;97029.00;;;;5052746;28;20664;-59
2023/01/23 05:15:36;;;;;;;2.63;2.43;;;;;-0.30;97035.00;;;;5052811;28;20197;-59
2023/01/23 05:18:04;;;;;;;3.03;2.73;;;;;-0.30;97030.00;;;;5052736;28;20190;-59
2023/01/23 05:20:31;;;;;;;2.93;2.03;;;;;-0.30;97041.00;;;;5052606;28;20233;-59
2023/01/23 05:22:58;;;;;;;3.00;2.77;;;;;-0.30;97040.00;;;;5052683;28;20192;-58
2023/01/23 05:25:28;;;;;;;2.43;2.17;;;;;-0.30;97039.00;;;;5052828;28;20243;-58
2023/01/23 05:27:55;;;;;;;2.57;2.37;;;;;-0.30;97043.00;;;;5052643;28;20197;-58
2023/01/23 05:30:24;;;;;;;2.17;2.03;;;;;-0.30;97033.00;;;;5052771;28;20224;-58
2023/01/23 05:32:52;;;;;;;2.67;2.47;;;;;-0.30;97036.00;;;;5053085;28;20710;-58
2023/01/23 05:35:19;;;;;;;3.27;2.97;;;;;-0.30;97042.00;;;;5052998;28;20731;-58
2023/01/23 05:37:50;;;;;;;2.37;2.17;;;;;-0.40;97042.00;;;;5052716;28;20201;-58
2023/01/23 05:40:35;;;;;;;3.73;2.67;;;;;-0.40;97047.00;;;;5052478;28;20230;-58
2023/01/23 05:43:05;;;;;;;3.87;3.57;;;;;-0.40;97041.00;;;;5052502;28;20209;-58
2023/01/23 05:45:34;;;;;;;3.33;3.03;;;;;-0.40;97047.00;;;;5052494;28;20283;-58
2023/01/23 05:48:01;;;;;;;3.93;3.63;;;;;-0.40;97037.00;;;;5052458;28;20197;-58
2023/01/23 05:50:29;;;;;;;3.33;2.67;;;;;-0.40;97042.00;;;;5052595;28;20274;-58
2023/01/23 05:52:57;;;;;;;2.77;2.67;;;;;-0.30;97043.00;;;;5052706;28;20197;-58
2023/01/23 05:55:24;;;;;;;3.10;2.33;;;;;-0.30;97026.00;;;;5034637;28;20207;-58
2023/01/23 05:57:52;;;;;;;6.03;3.77;;;;;-0.30;97034.00;;;;5052935;28;20197;-57
2023/01/23 06:00:20;;;;;;;2.67;2.47;;;;;-0.30;97026.00;;;;5052215;28;20220;-57
2023/01/23 06:02:49;;;;;;;3.20;2.97;;;;;-0.30;97034.00;;;;5052207;28;20201;-57
2023/01/23 06:05:16;;;;;;;2.83;2.63;;;;;-0.30;97040.00;;;;5053686;28;20190;-57
2023/01/23 06:07:43;;;;;;;3.30;2.50;;;;;-0.30;97039.00;;;;5056108;28;20196;-57
2023/01/23 06:10:11;;;;;;;1.40;1.40;;;;;-0.40;97039.00;;;;5055805;28;20222;-57
2023/01/23 06:12:38;;;;;;;2.37;2.27;;;;;-0.20;97035.00;;;;5056072;28;20192;-57
2023/01/23 06:15:07;;;;;;;2.60;2.40;;;;;-0.40;97031.00;;;;5055733;28;20244;-57
2023/01/23 06:17:34;;;;;;;2.40;2.20;;;;;-0.30;97038.00;;;;5055934;28;20200;-57
2023/01/23 06:20:03;;;;;;;2.43;2.33;;;;;-0.20;97043.00;;;;5055508;28;20286;-57
2023/01/23 06:22:30;;;;;;;2.47;2.27;;;;;-0.40;97052.00;;;;5055603;28;20196;-57
2023/01/23 06:24:58;;;;;;;2.27;1.80;;;;;-0.50;97039.00;;;;5055857;28;20266;-58
2023/01/23 06:27:25;;;;;;;2.73;2.33;;;;;-0.40;97052.00;;;;5055555;28;20196;-59
2023/01/23 06:29:53;;;;;;;2.57;2.33;;;;;-0.40;97049.00;;;;5055404;28;20263;-59
2023/01/23 06:32:22;;;;;;;2.07;1.90;;;;;-0.40;97056.00;;;;5055450;28;20201;-56
2023/01/23 06:34:49;;;;;;;1.77;1.60;;;;;-0.40;97058.00;;;;5055374;28;20200;-57
2023/01/23 06:37:18;;;;;;;1.67;1.57;;;;;-0.30;97058.00;;;;5055626;28;20296;-57
2023/01/23 06:39:45;;;;;;;2.23;2.13;;;;;-0.40;97079.00;;;;5055395;28;20277;-57
2023/01/23 06:42:13;;;;;;;1.90;1.80;;;;;-0.40;97082.00;;;;5055625;28;20571;-57
2023/01/23 06:44:42;;;;;;;3.60;3.30;;;;;-0.20;97085.00;;;;5055763;28;20194;-57
2023/01/23 06:47:09;;;;;;;3.23;2.20;;;;;-0.30;97087.00;;;;5055466;28;20228;-59
2023/01/23 06:49:36;;;;;;;1.83;1.73;;;;;-0.30;97093.00;;;;5055379;28;20668;-57
2023/01/23 06:52:04;;;;;;;2.83;2.60;;;;;-0.30;97092.00;;;;5055086;28;20746;-58
2023/01/23 06:54:33;;;;;;;2.43;2.33;;;;;-0.30;97095.00;;;;5055642;28;20192;-58
2023/01/23 06:57:00;;;;;;;2.30;2.20;;;;;-0.30;97100.00;;;;5055137;28;20196;-58
2023/01/23 06:59:28;;;;;;;2.80;2.23;;;;;-0.40;97095.00;;;;5054848;28;20247;-58
2023/01/23 07:01:55;;;;;;;2.33;2.13;;;;;-0.40;97097.00;;;;5055155;28;20536;-58
2023/01/23 07:04:23;;;;;;;2.47;2.27;;;;;-0.20;97103.00;;;;5054975;28;20201;-58
2023/01/23 07:06:50;;;;;;;2.13;2.03;;;;;-0.30;97105.00;;;;5054931;28;20188;-58
2023/01/23 07:09:18;;;;;;;3.93;2.80;;;;;-0.30;97114.00;;;;5054681;28;20217;-57
2023/01/23 07:11:46;;;;;;;2.87;2.70;;;;;-0.20;97109.00;;;;5055029;28;20197;-57
2023/01/23 07:14:14;;;;;;;4.33;3.27;;;;;-0.30;97111.00;;;;5054574;28;20639;-57
2023/01/23 07:16:41;;;;;;;4.70;2.93;;;;;-0.20;97121.00;;;;5036518;28;20199;-57
2023/01/23 07:19:09;;;;;;;1.83;1.73;;;;;-0.30;97116.00;;;;5054597;28;20625;-57
2023/01/23 07:21:36;;;;;;;1.20;1.20;;;;;-0.30;97114.00;;;;5054588;28;20204;-58
2023/01/23 07:24:04;;;;;;;2.00;1.90;;;;;-0.30;97120.00;;;;5054481;28;20198;-59
2023/01/23 07:26:32;;;;;;;6.17;2.97;;;;;-0.20;97126.00;;;;5054554;28;20199;-58
2023/01/23 07:29:00;;;;;;;2.10;2.00;;;;;-0.20;97131.00;;;;5054294;28;20695;-59
2023/01/23 07:31:28;;;;;;;1.87;1.70;;;;;-0.20;97126.00;;;;5054642;28;20254;-59
2023/01/23 07:33:55;;;;;;;2.90;2.13;;;;;-0.20;97127.00;;;;5054149;28;20204;-59
2023/01/23 07:36:23;;;;;;;3.87;3.20;;;;;0.20;97133.00;;;;5054286;28;20678;-58
2023/01/23 07:38:50;;;;;;;2.23;2.13;;;;;0.30;97128.00;;;;5049814;28;20250;-60
2023/01/23 07:41:17;;;;;;;1.73;1.63;;;;;0.30;97136.00;;;;5048940;28;20216;-63
2023/01/23 07:43:45;;;;;;;2.97;2.80;;;;;0.20;97121.00;;;;5050788;28;20205;-62
2023/01/23 07:46:14;;;;;;;2.73;2.53;;;;;0.20;97122.00;;;;5050469;28;20641;-62
2023/01/23 07:48:41;;;;;;;3.43;3.23;;;;;0.10;97131.00;;;;5051952;28;20205;-62
2023/01/23 07:51:09;;;;;;;2.47;2.23;;;;;0.10;97134.00;;;;5051678;28;20651;-62
2023/01/23 07:53:37;;;;;;;1.97;1.83;;;;;0.00;97129.00;;;;5051537;28;20197;-62
2023/01/23 07:56:05;;;;;;;1.93;1.83;;;;;0.00;97144.00;;;;5049475;28;20567;-59
2023/01/23 07:58:33;;;;;;;2.43;2.23;;;;;0.00;97137.00;;;;5051568;28;20204;-59
2023/01/23 08:01:06;;;;;;;2.47;2.27;;;;;0.00;97127.00;;;;5051564;28;20615;-59
2023/01/23 08:03:35;;;;;;;2.33;2.13;;;;;0.00;97135.00;;;;5050418;28;20194;-59
2023/01/23 08:06:03;;;;;;;1.93;1.83;;;;;-0.10;97131.00;;;;5050208;28;20196;-59
2023/01/23 08:08:30;;;;;;;2.57;2.37;;;;;-0.20;97129.00;;;;5051464;28;20203;-59
2023/01/23 08:10:58;;;;;;;2.83;2.47;;;;;-0.10;97125.00;;;;5051262;28;20196;-59
2023/01/23 08:13:26;;;;;;;2.80;2.60;;;;;-0.10;97133.00;;;;5051314;28;20215;-59
2023/01/23 08:15:53;;;;;;;2.00;1.90;;;;;0.10;97130.00;;;;5049858;28;20195;-59
2023/01/23 08:18:21;;;;;;;3.10;2.50;;;;;0.00;97119.00;;;;5051111;28;20205;-60
2023/01/23 08:20:55;;;;;;;3.17;2.17;;;;;0.00;97136.00;;;;5055025;22;20332;-65
2023/01/23 08:23:25;;;;;;;1.90;1.80;;;;;0.10;97139.00;;;;5031072;28;20193;-65
2023/01/23 08:25:54;;;;;;;3.97;2.37;;;;;-0.10;97124.00;;;;5026774;28;20229;-66
2023/01/23 08:28:22;;;;;;;4.50;3.13;;;;;0.00;97122.00;;;;5030467;28;20206;-65
2023/01/23 08:30:51;;;;;;;4.83;2.87;;;;;0.10;97114.00;;;;5007722;28;20700;-65
2023/01/23 08:33:19;;;;;;;2.20;2.10;;;;;0.10;97136.00;;;;5011096;28;20224;-66
2023/01/23 08:35:50;;;;;;;3.70;2.33;;;;;0.30;97124.00;;;;5011151;28;20269;-65
2023/01/23 08:38:19;;;;;;;2.23;1.97;;;;;0.30;97126.00;;;;5017424;28;20221;-65
2023/01/23 08:40:47;;;;;;;4.90;3.00;;;;;0.40;97129.00;;;;5019110;28;20228;-66
2023/01/23 08:43:15;;;;;;;1.83;1.73;;;;;0.30;97136.00;;;;5027503;28;20269;-65
2023/01/23 08:45:48;;;;;;;1.70;1.60;;;;;0.40;97115.00;;;;5031148;28;20198;-65
2023/01/23 08:48:16;;;;;;;2.60;2.07;;;;;0.30;97119.00;;;;5029463;28;20247;-65
2023/01/23 08:50:43;;;;;;;2.90;2.70;;;;;0.30;97127.00;;;;5030848;28;20224;-64
2023/01/23 08:53:11;;;;;;;4.20;3.90;;;;;0.40;97122.00;;;;5030246;28;20209;-64
2023/01/23 08:55:40;;;;;;;3.50;3.17;;;;;0.40;97118.00;;;;5030589;28;20201;-65
2023/01/23 08:58:08;;;;;;;2.90;2.77;;;;;0.40;97126.00;;;;5030582;28;20259;-65
2023/01/23 09:00:36;;;;;;;2.63;2.43;;;;;0.60;97114.00;;;;5030342;28;20571;-66
2023/01/23 09:03:04;;;;;;;3.40;2.40;;;;;0.50;97122.00;;;;5029175;28;21519;-65
2023/01/23 09:05:32;;;;;;;2.70;2.50;;;;;0.60;97123.00;;;;5030828;28;20558;-65
2023/01/23 09:08:00;;;;;;;2.17;1.97;;;;;0.50;97120.00;;;;5030741;28;20576;-66
2023/01/23 09:10:27;;;;;;;2.97;2.67;;;;;0.50;97122.00;;;;5030003;28;20225;-65
2023/01/23 09:12:57;;;;;;;2.13;2.03;;;;;0.60;97136.00;;;;5030888;28;20200;-65
2023/01/23 09:15:24;;;;;;;2.87;2.67;;;;;0.70;97130.00;;;;5029638;28;20590;-65
2023/01/23 09:17:52;;;;;;;1.97;1.87;;;;;0.70;97141.00;;;;5030084;28;20208;-65
2023/01/23 09:20:20;;;;;;;2.33;1.97;;;;;0.70;97136.00;;;;5012006;28;20232;-65
2023/01/23 09:22:48;;;;;;;4.43;3.27;;;;;0.80;97135.00;;;;5030542;28;20201;-66
2023/01/23 09:25:15;;;;;;;3.03;2.83;;;;;1.00;97128.00;;;;5012838;28;20211;-68
2023/01/23 09:27:43;;;;;;;1.97;1.77;;;;;1.00;97132.00;;;;5030537;28;20209;-66
2023/01/23 09:30:13;;;;;;;3.37;3.07;;;;;1.20;97119.00;;;;5030747;28;20229;-67
2023/01/23 09:32:40;;;;;;;2.23;2.13;;;;;1.30;97113.00;;;;5029696;28;20205;-69
2023/01/23 09:35:09;;;;;;;7.83;2.90;;;;;1.60;97109.00;;;;5011499;28;20202;-67
2023/01/23 09:40:21;;;;;;;2.00;1.80;;;;;1.70;97122.00;;;;5030298;28;20717;-66
2023/01/23 09:42:51;;;;;;;2.77;2.57;;;;;1.80;97122.00;;;;5034111;28;20194;-66
2023/01/23 09:45:22;;;;;;;13.40;2.53;;;;;1.80;97120.00;;;;5034102;28;20206;-66
2023/01/23 09:47:55;;;;;;;2.10;2.00;;;;;1.70;97126.00;;;;5032876;28;20213;-65
2023/01/23 09:50:28;;;;;;;4.53;2.33;;;;;1.70;97128.00;;;;5032806;28;20268;-65
2023/01/23 09:53:01;;;;;;;2.50;2.30;;;;;1.60;97131.00;;;;5034290;28;20191;-65
2023/01/23 09:55:40;;;;;;;2.87;2.30;;;;;1.50;97133.00;;;;5033192;28;20210;-65
2023/01/23 09:58:17;;;;;;;2.70;2.20;;;;;1.50;97124.00;;;;5033710;28;20200;-69
2023/01/23 10:00:47;;;;;;;1.50;1.43;;;;;1.50;97120.00;;;;5033640;28;20222;-65
2023/01/23 10:03:16;;;;;;;2.33;2.13;;;;;1.60;97117.00;;;;5026428;28;20204;-65
2023/01/23 10:05:53;;;;;;;2.37;2.23;;;;;1.50;97137.00;;;;5013952;28;20271;-65
2023/01/23 10:08:29;;;;;;;2.97;2.70;;;;;1.40;97137.00;;;;5013939;28;20277;-65
2023/01/23 10:10:59;;;;;;;2.13;1.67;;;;;1.40;97142.00;;;;5013786;28;20694;-66
2023/01/23 10:13:54;;;;;;;2.67;2.47;;;;;1.10;97133.00;;;;5013694;28;20264;-65
2023/01/23 10:16:40;;;;;;;2.07;1.97;;;;;1.00;97136.00;;;;4967667;28;20588;-65
2023/01/23 10:19:19;;;;;;;2.73;2.17;;;;;0.90;97151.00;;;;5013612;28;20654;-65
2023/01/23 10:21:55;;;;;;;4.60;2.47;;;;;0.90;97148.00;;;;5013199;28;20707;-66
2023/01/23 10:24:43;;;;;;;1.87;1.77;;;;;0.90;97152.00;;;;5014130;28;20193;-65
2023/01/23 10:27:19;;;;;;;1.20;1.10;;;;;0.80;97141.00;;;;5013156;28;20741;-65
2023/01/23 10:29:52;;;;;;;2.27;2.07;;;;;0.80;97146.00;;;;5013751;28;20225;-66
2023/01/23 10:32:26;;;;;;;1.67;1.60;;;;;0.60;97159.00;;;;5008985;28;20238;-66
2023/01/23 10:34:57;;;;;;;4.83;3.23;;;;;0.70;97153.00;;;;5013805;28;20195;-66
2023/01/23 10:37:40;;;;;;;2.33;2.13;;;;;0.80;97147.00;;;;5013040;28;20213;-66
2023/01/23 10:40:11;;;;;;;1.90;1.80;;;;;0.70;97141.00;;;;4995878;28;20226;-65
2023/01/23 10:42:39;;;;;;;2.00;1.90;;;;;0.90;97135.00;;;;5012844;28;20245;-66
2023/01/23 10:45:13;;;;;;;2.30;2.10;;;;;1.10;97138.00;;;;5013541;28;20202;-65
2023/01/23 10:47:46;;;;;;;2.07;1.97;;;;;1.30;97127.00;;;;5012946;28;20189;-66
2023/01/23 10:50:14;;;;;;;2.43;2.23;;;;;1.30;97129.00;;;;5012979;28;20225;-66
2023/01/23 10:52:44;;;;;;;2.27;2.17;;;;;1.40;97117.00;;;;5012557;28;20200;-65
2023/01/23 10:55:29;;;;;;;1.20;1.20;;;;;1.50;97117.00;;;;5013287;28;20206;-65
2023/01/23 10:58:01;;;;;;;2.03;1.93;;;;;1.70;97107.00;;;;5012684;28;20198;-65
2023/01/23 11:00:35;;;;;;;2.50;2.30;;;;;1.80;97115.00;;;;5012839;28;20222;-66
2023/01/23 11:03:29;;;;;;;3.13;2.10;;;;;1.80;97107.00;;;;5012907;28;20716;-65
2023/01/23 11:06:02;;;;;;;1.90;1.70;;;;;1.80;97120.00;;;;5012507;28;20200;-66
2023/01/23 11:08:32;;;;;;;1.40;1.40;;;;;1.90;97119.00;;;;5013283;28;20192;-66
2023/01/23 11:11:21;;;;;;;3.17;2.90;;;;;1.80;97121.00;;;;4995003;28;20711;-66
2023/01/23 11:13:51;;;;;;;1.20;1.20;;;;;1.80;97118.00;;;;4995648;28;20204;-65
2023/01/23 11:16:21;;;;;;;4.30;2.97;;;;;1.60;97128.00;;;;5012267;28;20229;-66
2023/01/23 11:18:54;;;;;;;3.87;2.17;;;;;1.30;97125.00;;;;5013005;28;20208;-66
2023/01/23 11:21:22;;;;;;;2.93;2.73;;;;;1.20;97119.00;;;;5012493;28;20641;-66
2023/01/23 11:24:07;;;;;;;2.80;2.37;;;;;1.20;97117.00;;;;5012921;28;20204;-66
2023/01/23 11:26:36;;;;;;;1.47;1.13;;;;;1.30;97098.00;;;;5012594;28;20191;-66
2023/01/23 11:29:18;;;;;;;1.43;1.37;;;;;1.30;97092.00;;;;5012465;28;20249;-65
2023/01/23 11:31:46;;;;;;;1.47;1.37;;;;;1.30;97085.00;;;;5013081;28;20559;-65
2023/01/23 11:34:19;;;;;;;1.53;1.40;;;;;1.10;97073.00;;;;5012328;28;20213;-66
2023/01/23 11:36:53;;;;;;;2.03;1.87;;;;;1.20;97081.00;;;;5012545;28;20187;-65
2023/01/23 11:39:48;;;;;;;3.30;2.73;;;;;1.20;97078.00;;;;5011218;28;20193;-65
2023/01/23 11:42:18;;;;;;;3.13;2.93;;;;;1.20;97087.00;;;;4988801;28;20231;-65
2023/01/23 11:44:47;;;;;;;1.27;1.27;;;;;1.00;97077.00;;;;5012668;28;20202;-65
2023/01/23 11:47:46;;;;;;;2.00;1.90;;;;;1.10;97075.00;;;;5012186;28;20250;-65
2023/01/23 11:50:35;;;;;;;2.87;2.67;;;;;1.00;97085.00;;;;5012003;28;20223;-65
2023/01/23 11:53:12;;;;;;;1.83;1.73;;;;;1.10;97086.00;;;;5012261;28;20203;-65
2023/01/23 11:55:59;;;;;;;4.30;3.90;;;;;1.20;97078.00;;;;5011604;28;20260;-65
2023/01/23 11:58:54;;;;;;;2.93;2.60;;;;;1.30;97085.00;;;;4999438;28;20620;-66
2023/01/23 12:01:29;;;;;;;3.07;2.47;;;;;1.30;97091.00;;;;5011392;28;20224;-66
2023/01/23 12:04:28;;;;;;;1.80;1.70;;;;;1.40;97078.00;;;;4993315;28;20682;-65
2023/01/23 12:07:17;;;;;;;1.90;1.80;;;;;1.30;97087.00;;;;5011508;28;20567;-67
2023/01/23 12:09:59;;;;;;;1.40;1.40;;;;;1.40;97078.00;;;;4993929;28;20282;-66
2023/01/23 12:12:46;;;;;;;4.67;2.23;;;;;1.40;97070.00;;;;5011950;28;20671;-67
2023/01/23 12:15:22;;;;;;;1.27;1.27;;;;;1.40;97071.00;;;;5011587;28;20192;-66
2023/01/23 12:18:01;;;;;;;2.57;2.37;;;;;1.40;97076.00;;;;4994185;28;20632;-66
2023/01/23 12:20:38;;;;;;;3.50;1.87;;;;;1.40;97071.00;;;;5010916;28;20726;-65
2023/01/23 12:23:39;;;;;;;1.83;1.73;;;;;1.50;97079.00;;;;5011713;28;20679;-66
2023/01/23 12:26:13;;;;;;;1.63;1.57;;;;;1.40;97065.00;;;;5011029;28;20659;-67
2023/01/23 12:29:00;;;;;;;2.63;2.43;;;;;1.50;97067.00;;;;5011210;28;20346;-65
2023/01/23 12:31:48;;;;;;;2.37;1.83;;;;;1.20;97069.00;;;;5011238;28;20226;-65
2023/01/23 12:34:34;;;;;;;3.70;2.50;;;;;1.10;97059.00;;;;5011234;28;20222;-66
2023/01/23 12:37:13;;;;;;;1.60;1.50;;;;;0.90;97052.00;;;;5011582;28;20190;-66
2023/01/23 12:39:56;;;;;;;2.50;2.30;;;;;1.10;97048.00;;;;5010797;28;20309;-66
2023/01/23 12:42:28;;;;;;;2.53;2.33;;;;;1.20;97049.00;;;;5011817;28;20571;-67
2023/01/23 12:45:03;;;;;;;2.07;1.90;;;;;1.30;97039.00;;;;5010940;28;20195;-65
2023/01/23 12:47:37;;;;;;;2.07;1.70;;;;;1.40;97033.00;;;;5011807;28;20217;-64
2023/01/23 12:50:17;;;;;;;2.50;2.03;;;;;1.50;97023.00;;;;5010698;28;20218;-67